sensor_id;sensor_type;location;lat;lon;timestamp;P1;durP1;ratioP1;P2;durP2;ratioP2
42754;SDS011;28407;51.830;5.684;2022-11-20T00:00:38;10.00;;;7.47;;
42754;SDS011;28407;51.830;5.684;2022-11-20T00:02:39;7.90;;;7.10;;
42754;SDS011;28407;51.830;5.684;2022-11-20T00:04:40;9.20;;;7.47;;
42754;SDS011;28407;51.830;5.684;2022-11-20T00:06:40;10.70;;;8.57;;
42754;SDS011;28407;51.830;5.684;2022-11-20T00:08:41;7.53;;;6.53;;
42754;SDS011;28407;51.830;5.684;2022-11-20T00:10:42;9.03;;;7.57;;
42754;SDS011;28407;51.830;5.684;2022-11-20T00:12:43;9.43;;;7.82;;
42754;SDS011;28407;51.830;5.684;2022-11-20T00:14:43;8.65;;;7.13;;
42754;SDS011;28407;51.830;5.684;2022-11-20T00:16:44;13.55;;;8.45;;
42754;SDS011;28407;51.830;5.684;2022-11-20T00:18:45;9.55;;;7.70;;
42754;SDS011;28407;51.830;5.684;2022-11-20T00:20:45;7.15;;;6.40;;
42754;SDS011;28407;51.830;5.684;2022-11-20T00:22:46;8.05;;;7.22;;
42754;SDS011;28407;51.830;5.684;2022-11-20T00:24:47;9.38;;;7.53;;
42754;SDS011;28407;51.830;5.684;2022-11-20T00:26:47;8.70;;;7.18;;
42754;SDS011;28407;51.830;5.684;2022-11-20T00:28:51;6.75;;;6.05;;
42754;SDS011;28407;51.830;5.684;2022-11-20T00:30:59;7.95;;;6.90;;
42754;SDS011;28407;51.830;5.684;2022-11-20T00:33:04;11.02;;;8.27;;
42754;SDS011;28407;51.830;5.684;2022-11-20T00:35:05;10.20;;;8.00;;
42754;SDS011;28407;51.830;5.684;2022-11-20T00:37:06;7.82;;;6.97;;
42754;SDS011;28407;51.830;5.684;2022-11-20T00:39:06;7.93;;;6.85;;
42754;SDS011;28407;51.830;5.684;2022-11-20T00:41:08;8.98;;;7.07;;
42754;SDS011;28407;51.830;5.684;2022-11-20T00:43:09;9.23;;;7.28;;
42754;SDS011;28407;51.830;5.684;2022-11-20T00:45:10;10.25;;;7.68;;
42754;SDS011;28407;51.830;5.684;2022-11-20T00:47:10;10.35;;;7.78;;
42754;SDS011;28407;51.830;5.684;2022-11-20T00:49:11;8.23;;;6.93;;
42754;SDS011;28407;51.830;5.684;2022-11-20T00:51:13;9.27;;;8.10;;
42754;SDS011;28407;51.830;5.684;2022-11-20T00:53:18;12.75;;;7.45;;
42754;SDS011;28407;51.830;5.684;2022-11-20T00:55:18;8.88;;;7.45;;
42754;SDS011;28407;51.830;5.684;2022-11-20T00:57:19;8.93;;;7.65;;
42754;SDS011;28407;51.830;5.684;2022-11-20T00:59:19;10.70;;;8.75;;
42754;SDS011;28407;51.830;5.684;2022-11-20T01:01:21;9.30;;;7.85;;
42754;SDS011;28407;51.830;5.684;2022-11-20T01:03:26;7.68;;;6.57;;
42754;SDS011;28407;51.830;5.684;2022-11-20T01:05:27;9.48;;;6.53;;
42754;SDS011;28407;51.830;5.684;2022-11-20T01:07:27;11.05;;;8.68;;
42754;SDS011;28407;51.830;5.684;2022-11-20T01:09:28;10.73;;;8.35;;
42754;SDS011;28407;51.830;5.684;2022-11-20T01:11:32;9.27;;;7.55;;
42754;SDS011;28407;51.830;5.684;2022-11-20T01:13:35;7.65;;;6.55;;
42754;SDS011;28407;51.830;5.684;2022-11-20T01:15:39;11.77;;;8.50;;
42754;SDS011;28407;51.830;5.684;2022-11-20T01:17:39;9.00;;;6.90;;
42754;SDS011;28407;51.830;5.684;2022-11-20T01:19:40;8.35;;;7.10;;
42754;SDS011;28407;51.830;5.684;2022-11-20T01:21:41;11.50;;;8.20;;
42754;SDS011;28407;51.830;5.684;2022-11-20T01:23:44;9.13;;;6.97;;
42754;SDS011;28407;51.830;5.684;2022-11-20T01:25:45;8.73;;;7.28;;
42754;SDS011;28407;51.830;5.684;2022-11-20T01:27:45;8.18;;;7.00;;
42754;SDS011;28407;51.830;5.684;2022-11-20T01:29:46;8.93;;;7.00;;
42754;SDS011;28407;51.830;5.684;2022-11-20T01:31:46;8.68;;;7.63;;
42754;SDS011;28407;51.830;5.684;2022-11-20T01:33:48;10.38;;;8.27;;
42754;SDS011;28407;51.830;5.684;2022-11-20T01:35:51;8.90;;;7.10;;
42754;SDS011;28407;51.830;5.684;2022-11-20T01:37:52;8.43;;;7.03;;
42754;SDS011;28407;51.830;5.684;2022-11-20T01:39:52;8.00;;;6.88;;
42754;SDS011;28407;51.830;5.684;2022-11-20T01:41:53;9.00;;;7.43;;
42754;SDS011;28407;51.830;5.684;2022-11-20T01:44:14;9.48;;;7.57;;
42754;SDS011;28407;51.830;5.684;2022-11-20T01:46:17;8.55;;;7.68;;
42754;SDS011;28407;51.830;5.684;2022-11-20T01:50:24;7.78;;;6.43;;
42754;SDS011;28407;51.830;5.684;2022-11-20T01:52:33;8.65;;;6.80;;
42754;SDS011;28407;51.830;5.684;2022-11-20T01:54:42;8.82;;;7.57;;
42754;SDS011;28407;51.830;5.684;2022-11-20T01:57:08;10.00;;;7.32;;
42754;SDS011;28407;51.830;5.684;2022-11-20T01:59:12;8.23;;;7.35;;
42754;SDS011;28407;51.830;5.684;2022-11-20T02:01:15;10.55;;;8.45;;
42754;SDS011;28407;51.830;5.684;2022-11-20T02:03:17;10.13;;;7.18;;
42754;SDS011;28407;51.830;5.684;2022-11-20T02:05:22;9.05;;;7.40;;
42754;SDS011;28407;51.830;5.684;2022-11-20T02:07:24;10.77;;;7.07;;
42754;SDS011;28407;51.830;5.684;2022-11-20T02:09:25;10.30;;;8.15;;
42754;SDS011;28407;51.830;5.684;2022-11-20T02:11:26;10.05;;;6.93;;
42754;SDS011;28407;51.830;5.684;2022-11-20T02:13:26;8.77;;;7.68;;
42754;SDS011;28407;51.830;5.684;2022-11-20T02:15:43;9.60;;;7.18;;
42754;SDS011;28407;51.830;5.684;2022-11-20T02:17:44;9.17;;;7.17;;
42754;SDS011;28407;51.830;5.684;2022-11-20T02:19:45;11.52;;;8.15;;
42754;SDS011;28407;51.830;5.684;2022-11-20T02:26:14;9.85;;;7.90;;
42754;SDS011;28407;51.830;5.684;2022-11-20T02:28:16;9.43;;;7.32;;
42754;SDS011;28407;51.830;5.684;2022-11-20T02:30:18;10.45;;;8.40;;
42754;SDS011;28407;51.830;5.684;2022-11-20T02:32:23;11.60;;;8.27;;
42754;SDS011;28407;51.830;5.684;2022-11-20T02:34:26;9.85;;;7.70;;
42754;SDS011;28407;51.830;5.684;2022-11-20T02:36:26;9.65;;;8.15;;
42754;SDS011;28407;51.830;5.684;2022-11-20T02:38:30;8.43;;;7.40;;
42754;SDS011;28407;51.830;5.684;2022-11-20T02:40:30;8.63;;;7.10;;
42754;SDS011;28407;51.830;5.684;2022-11-20T02:42:31;8.90;;;7.45;;
42754;SDS011;28407;51.830;5.684;2022-11-20T02:44:31;9.45;;;7.85;;
42754;SDS011;28407;51.830;5.684;2022-11-20T02:46:32;9.32;;;7.07;;
42754;SDS011;28407;51.830;5.684;2022-11-20T02:48:34;8.40;;;7.43;;
42754;SDS011;28407;51.830;5.684;2022-11-20T02:50:38;7.78;;;6.75;;
42754;SDS011;28407;51.830;5.684;2022-11-20T02:52:39;12.85;;;8.32;;
42754;SDS011;28407;51.830;5.684;2022-11-20T02:54:40;8.82;;;6.97;;
42754;SDS011;28407;51.830;5.684;2022-11-20T02:56:41;9.50;;;7.38;;
42754;SDS011;28407;51.830;5.684;2022-11-20T02:58:41;10.23;;;7.38;;
42754;SDS011;28407;51.830;5.684;2022-11-20T03:00:42;8.50;;;7.60;;
42754;SDS011;28407;51.830;5.684;2022-11-20T03:02:42;10.52;;;7.72;;
42754;SDS011;28407;51.830;5.684;2022-11-20T03:04:43;10.40;;;8.60;;
42754;SDS011;28407;51.830;5.684;2022-11-20T03:06:43;10.05;;;8.07;;
42754;SDS011;28407;51.830;5.684;2022-11-20T03:08:44;11.25;;;7.85;;
42754;SDS011;28407;51.830;5.684;2022-11-20T03:10:45;10.25;;;7.20;;
42754;SDS011;28407;51.830;5.684;2022-11-20T03:12:45;12.27;;;8.68;;
42754;SDS011;28407;51.830;5.684;2022-11-20T03:14:46;10.10;;;8.23;;
42754;SDS011;28407;51.830;5.684;2022-11-20T03:16:46;7.93;;;6.90;;
42754;SDS011;28407;51.830;5.684;2022-11-20T03:18:47;8.50;;;7.05;;
42754;SDS011;28407;51.830;5.684;2022-11-20T03:20:48;9.33;;;7.57;;
42754;SDS011;28407;51.830;5.684;2022-11-20T03:22:49;9.00;;;7.05;;
42754;SDS011;28407;51.830;5.684;2022-11-20T03:24:49;10.13;;;8.13;;
42754;SDS011;28407;51.830;5.684;2022-11-20T03:26:51;9.17;;;7.37;;
42754;SDS011;28407;51.830;5.684;2022-11-20T03:28:55;9.88;;;7.85;;
42754;SDS011;28407;51.830;5.684;2022-11-20T03:30:57;9.70;;;7.70;;
42754;SDS011;28407;51.830;5.684;2022-11-20T03:32:58;10.55;;;7.68;;
42754;SDS011;28407;51.830;5.684;2022-11-20T03:34:58;9.40;;;7.05;;
42754;SDS011;28407;51.830;5.684;2022-11-20T03:36:59;10.38;;;8.32;;
42754;SDS011;28407;51.830;5.684;2022-11-20T03:38:59;8.45;;;7.18;;
42754;SDS011;28407;51.830;5.684;2022-11-20T03:41:01;8.63;;;6.65;;
42754;SDS011;28407;51.830;5.684;2022-11-20T03:43:06;9.88;;;8.20;;
42754;SDS011;28407;51.830;5.684;2022-11-20T03:45:09;9.52;;;7.38;;
42754;SDS011;28407;51.830;5.684;2022-11-20T03:47:10;8.95;;;7.43;;
42754;SDS011;28407;51.830;5.684;2022-11-20T03:49:10;10.80;;;7.68;;
42754;SDS011;28407;51.830;5.684;2022-11-20T03:51:18;10.98;;;8.50;;
42754;SDS011;28407;51.830;5.684;2022-11-20T03:53:20;9.35;;;7.00;;
42754;SDS011;28407;51.830;5.684;2022-11-20T03:55:20;9.15;;;7.28;;
42754;SDS011;28407;51.830;5.684;2022-11-20T03:57:21;9.30;;;6.95;;
42754;SDS011;28407;51.830;5.684;2022-11-20T03:59:22;9.13;;;7.47;;
42754;SDS011;28407;51.830;5.684;2022-11-20T04:01:23;7.75;;;6.20;;
42754;SDS011;28407;51.830;5.684;2022-11-20T04:03:29;8.88;;;6.90;;
42754;SDS011;28407;51.830;5.684;2022-11-20T04:05:30;9.65;;;7.13;;
42754;SDS011;28407;51.830;5.684;2022-11-20T04:07:33;12.18;;;8.52;;
42754;SDS011;28407;51.830;5.684;2022-11-20T04:09:34;9.73;;;7.32;;
42754;SDS011;28407;51.830;5.684;2022-11-20T04:11:35;9.10;;;7.03;;
42754;SDS011;28407;51.830;5.684;2022-11-20T04:13:37;10.88;;;7.38;;
42754;SDS011;28407;51.830;5.684;2022-11-20T04:15:37;8.88;;;6.70;;
42754;SDS011;28407;51.830;5.684;2022-11-20T04:17:38;8.52;;;7.30;;
42754;SDS011;28407;51.830;5.684;2022-11-20T04:19:39;10.43;;;8.25;;
42754;SDS011;28407;51.830;5.684;2022-11-20T04:21:39;10.30;;;8.43;;
42754;SDS011;28407;51.830;5.684;2022-11-20T04:23:40;10.43;;;7.43;;
42754;SDS011;28407;51.830;5.684;2022-11-20T04:25:41;9.55;;;7.50;;
42754;SDS011;28407;51.830;5.684;2022-11-20T04:27:41;8.70;;;7.78;;
42754;SDS011;28407;51.830;5.684;2022-11-20T04:29:42;9.60;;;7.85;;
42754;SDS011;28407;51.830;5.684;2022-11-20T04:31:42;9.23;;;6.28;;
42754;SDS011;28407;51.830;5.684;2022-11-20T04:33:43;11.00;;;8.68;;
42754;SDS011;28407;51.830;5.684;2022-11-20T04:35:44;11.48;;;8.15;;
42754;SDS011;28407;51.830;5.684;2022-11-20T04:37:47;9.35;;;7.20;;
42754;SDS011;28407;51.830;5.684;2022-11-20T04:39:50;9.38;;;7.18;;
42754;SDS011;28407;51.830;5.684;2022-11-20T04:41:51;9.88;;;7.55;;
42754;SDS011;28407;51.830;5.684;2022-11-20T04:44:11;8.77;;;6.97;;
42754;SDS011;28407;51.830;5.684;2022-11-20T04:46:12;9.98;;;7.85;;
42754;SDS011;28407;51.830;5.684;2022-11-20T04:48:13;8.80;;;7.32;;
42754;SDS011;28407;51.830;5.684;2022-11-20T04:50:13;8.38;;;7.57;;
42754;SDS011;28407;51.830;5.684;2022-11-20T04:52:14;10.13;;;9.00;;
42754;SDS011;28407;51.830;5.684;2022-11-20T04:54:14;9.13;;;7.90;;
42754;SDS011;28407;51.830;5.684;2022-11-20T04:56:16;8.00;;;6.30;;
42754;SDS011;28407;51.830;5.684;2022-11-20T04:58:17;9.68;;;7.40;;
42754;SDS011;28407;51.830;5.684;2022-11-20T05:00:17;11.30;;;9.10;;
42754;SDS011;28407;51.830;5.684;2022-11-20T05:02:18;8.80;;;7.38;;
42754;SDS011;28407;51.830;5.684;2022-11-20T05:04:18;7.78;;;6.40;;
42754;SDS011;28407;51.830;5.684;2022-11-20T05:06:20;9.27;;;7.88;;
42754;SDS011;28407;51.830;5.684;2022-11-20T05:08:21;9.52;;;8.00;;
42754;SDS011;28407;51.830;5.684;2022-11-20T05:10:22;11.87;;;9.00;;
42754;SDS011;28407;51.830;5.684;2022-11-20T05:12:23;9.90;;;7.83;;
42754;SDS011;28407;51.830;5.684;2022-11-20T05:14:24;8.98;;;7.50;;
42754;SDS011;28407;51.830;5.684;2022-11-20T05:16:24;10.23;;;7.72;;
42754;SDS011;28407;51.830;5.684;2022-11-20T05:18:25;9.02;;;7.10;;
42754;SDS011;28407;51.830;5.684;2022-11-20T05:20:26;11.30;;;7.65;;
42754;SDS011;28407;51.830;5.684;2022-11-20T05:22:27;8.65;;;7.47;;
42754;SDS011;28407;51.830;5.684;2022-11-20T05:24:27;10.77;;;8.10;;
42754;SDS011;28407;51.830;5.684;2022-11-20T05:26:28;10.52;;;8.02;;
42754;SDS011;28407;51.830;5.684;2022-11-20T05:28:29;7.18;;;6.32;;
42754;SDS011;28407;51.830;5.684;2022-11-20T05:30:30;8.43;;;7.00;;
42754;SDS011;28407;51.830;5.684;2022-11-20T05:32:31;9.50;;;6.80;;
42754;SDS011;28407;51.830;5.684;2022-11-20T05:34:31;7.78;;;6.00;;
42754;SDS011;28407;51.830;5.684;2022-11-20T05:36:32;9.10;;;7.13;;
42754;SDS011;28407;51.830;5.684;2022-11-20T05:38:33;8.80;;;7.32;;
42754;SDS011;28407;51.830;5.684;2022-11-20T05:40:34;7.85;;;6.38;;
42754;SDS011;28407;51.830;5.684;2022-11-20T05:42:34;8.55;;;7.60;;
42754;SDS011;28407;51.830;5.684;2022-11-20T05:44:35;9.57;;;7.55;;
42754;SDS011;28407;51.830;5.684;2022-11-20T05:46:36;8.23;;;6.75;;
42754;SDS011;28407;51.830;5.684;2022-11-20T05:48:37;9.93;;;7.68;;
42754;SDS011;28407;51.830;5.684;2022-11-20T05:50:39;8.70;;;7.22;;
42754;SDS011;28407;51.830;5.684;2022-11-20T05:52:39;7.50;;;6.38;;
42754;SDS011;28407;51.830;5.684;2022-11-20T05:54:40;10.68;;;8.05;;
42754;SDS011;28407;51.830;5.684;2022-11-20T05:56:41;9.93;;;7.53;;
42754;SDS011;28407;51.830;5.684;2022-11-20T05:58:41;10.48;;;7.95;;
42754;SDS011;28407;51.830;5.684;2022-11-20T06:00:42;11.80;;;7.82;;
42754;SDS011;28407;51.830;5.684;2022-11-20T06:02:43;8.98;;;8.07;;
42754;SDS011;28407;51.830;5.684;2022-11-20T06:04:43;8.50;;;7.65;;
42754;SDS011;28407;51.830;5.684;2022-11-20T06:06:44;8.60;;;6.85;;
42754;SDS011;28407;51.830;5.684;2022-11-20T06:08:44;12.60;;;7.80;;
42754;SDS011;28407;51.830;5.684;2022-11-20T06:10:45;6.80;;;6.03;;
42754;SDS011;28407;51.830;5.684;2022-11-20T06:12:46;10.57;;;7.60;;
42754;SDS011;28407;51.830;5.684;2022-11-20T06:14:46;9.68;;;7.57;;
42754;SDS011;28407;51.830;5.684;2022-11-20T06:16:47;8.63;;;6.93;;
42754;SDS011;28407;51.830;5.684;2022-11-20T06:18:48;8.57;;;7.05;;
42754;SDS011;28407;51.830;5.684;2022-11-20T06:20:48;8.60;;;6.55;;
42754;SDS011;28407;51.830;5.684;2022-11-20T06:22:49;8.88;;;6.97;;
42754;SDS011;28407;51.830;5.684;2022-11-20T06:24:49;8.40;;;7.50;;
42754;SDS011;28407;51.830;5.684;2022-11-20T06:26:50;6.78;;;6.07;;
42754;SDS011;28407;51.830;5.684;2022-11-20T06:28:51;9.27;;;7.15;;
42754;SDS011;28407;51.830;5.684;2022-11-20T06:30:53;7.85;;;7.05;;
42754;SDS011;28407;51.830;5.684;2022-11-20T06:32:53;9.18;;;7.88;;
42754;SDS011;28407;51.830;5.684;2022-11-20T06:34:54;8.70;;;7.57;;
42754;SDS011;28407;51.830;5.684;2022-11-20T06:36:54;8.77;;;6.15;;
42754;SDS011;28407;51.830;5.684;2022-11-20T06:38:55;8.13;;;5.32;;
42754;SDS011;28407;51.830;5.684;2022-11-20T06:40:56;7.43;;;6.10;;
42754;SDS011;28407;51.830;5.684;2022-11-20T06:42:56;7.63;;;6.82;;
42754;SDS011;28407;51.830;5.684;2022-11-20T06:44:57;7.15;;;6.13;;
42754;SDS011;28407;51.830;5.684;2022-11-20T06:46:57;6.93;;;6.03;;
42754;SDS011;28407;51.830;5.684;2022-11-20T06:48:58;7.80;;;6.53;;
42754;SDS011;28407;51.830;5.684;2022-11-20T06:50:58;9.35;;;7.55;;
42754;SDS011;28407;51.830;5.684;2022-11-20T06:53:03;10.27;;;7.72;;
42754;SDS011;28407;51.830;5.684;2022-11-20T06:55:04;9.35;;;6.93;;
42754;SDS011;28407;51.830;5.684;2022-11-20T06:57:05;9.30;;;5.47;;
42754;SDS011;28407;51.830;5.684;2022-11-20T06:59:06;8.85;;;7.20;;
42754;SDS011;28407;51.830;5.684;2022-11-20T07:01:11;9.25;;;7.13;;
42754;SDS011;28407;51.830;5.684;2022-11-20T07:03:13;9.60;;;7.13;;
42754;SDS011;28407;51.830;5.684;2022-11-20T07:05:14;8.13;;;7.07;;
42754;SDS011;28407;51.830;5.684;2022-11-20T07:07:14;6.50;;;5.57;;
42754;SDS011;28407;51.830;5.684;2022-11-20T07:09:15;9.50;;;7.82;;
42754;SDS011;28407;51.830;5.684;2022-11-20T07:11:16;7.63;;;6.13;;
42754;SDS011;28407;51.830;5.684;2022-11-20T07:13:16;8.57;;;7.13;;
42754;SDS011;28407;51.830;5.684;2022-11-20T07:15:17;9.13;;;7.43;;
42754;SDS011;28407;51.830;5.684;2022-11-20T07:19:20;11.02;;;7.13;;
42754;SDS011;28407;51.830;5.684;2022-11-20T07:21:20;8.43;;;6.07;;
42754;SDS011;28407;51.830;5.684;2022-11-20T07:23:21;8.00;;;6.10;;
42754;SDS011;28407;51.830;5.684;2022-11-20T07:25:22;10.32;;;7.68;;
42754;SDS011;28407;51.830;5.684;2022-11-20T07:27:23;10.15;;;7.43;;
42754;SDS011;28407;51.830;5.684;2022-11-20T07:29:24;7.50;;;6.30;;
42754;SDS011;28407;51.830;5.684;2022-11-20T07:31:24;10.50;;;7.65;;
42754;SDS011;28407;51.830;5.684;2022-11-20T07:33:25;10.23;;;8.23;;
42754;SDS011;28407;51.830;5.684;2022-11-20T07:35:26;10.80;;;8.38;;
42754;SDS011;28407;51.830;5.684;2022-11-20T07:37:26;9.80;;;7.28;;
42754;SDS011;28407;51.830;5.684;2022-11-20T07:39:27;10.68;;;7.15;;
42754;SDS011;28407;51.830;5.684;2022-11-20T07:41:28;8.77;;;7.72;;
42754;SDS011;28407;51.830;5.684;2022-11-20T07:43:29;10.05;;;7.07;;
42754;SDS011;28407;51.830;5.684;2022-11-20T07:45:31;9.05;;;6.80;;
42754;SDS011;28407;51.830;5.684;2022-11-20T07:47:35;8.70;;;6.85;;
42754;SDS011;28407;51.830;5.684;2022-11-20T07:49:36;8.10;;;6.53;;
42754;SDS011;28407;51.830;5.684;2022-11-20T07:51:36;6.95;;;5.93;;
42754;SDS011;28407;51.830;5.684;2022-11-20T07:53:37;6.70;;;6.00;;
42754;SDS011;28407;51.830;5.684;2022-11-20T07:55:38;10.27;;;6.82;;
42754;SDS011;28407;51.830;5.684;2022-11-20T07:57:38;8.07;;;6.60;;
42754;SDS011;28407;51.830;5.684;2022-11-20T07:59:39;7.03;;;6.13;;
42754;SDS011;28407;51.830;5.684;2022-11-20T08:01:40;7.38;;;6.32;;
42754;SDS011;28407;51.830;5.684;2022-11-20T08:03:40;8.70;;;6.72;;
42754;SDS011;28407;51.830;5.684;2022-11-20T08:05:41;7.75;;;6.15;;
42754;SDS011;28407;51.830;5.684;2022-11-20T08:07:42;6.95;;;6.25;;
42754;SDS011;28407;51.830;5.684;2022-11-20T08:11:44;7.38;;;5.75;;
42754;SDS011;28407;51.830;5.684;2022-11-20T08:14:03;8.32;;;6.45;;
42754;SDS011;28407;51.830;5.684;2022-11-20T08:16:13;7.38;;;5.75;;
42754;SDS011;28407;51.830;5.684;2022-11-20T08:18:13;7.57;;;6.68;;
42754;SDS011;28407;51.830;5.684;2022-11-20T08:20:15;7.43;;;6.43;;
42754;SDS011;28407;51.830;5.684;2022-11-20T08:22:15;6.13;;;5.53;;
42754;SDS011;28407;51.830;5.684;2022-11-20T08:26:18;6.85;;;5.55;;
42754;SDS011;28407;51.830;5.684;2022-11-20T08:28:18;7.10;;;5.78;;
42754;SDS011;28407;51.830;5.684;2022-11-20T08:30:19;6.65;;;5.95;;
42754;SDS011;28407;51.830;5.684;2022-11-20T08:32:19;8.15;;;6.70;;
42754;SDS011;28407;51.830;5.684;2022-11-20T08:34:20;10.63;;;8.38;;
42754;SDS011;28407;51.830;5.684;2022-11-20T08:36:21;8.52;;;7.35;;
42754;SDS011;28407;51.830;5.684;2022-11-20T08:38:22;7.45;;;6.22;;
42754;SDS011;28407;51.830;5.684;2022-11-20T08:40:23;8.32;;;6.82;;
42754;SDS011;28407;51.830;5.684;2022-11-20T08:42:23;8.73;;;7.47;;
42754;SDS011;28407;51.830;5.684;2022-11-20T08:44:24;8.18;;;6.68;;
42754;SDS011;28407;51.830;5.684;2022-11-20T08:46:25;8.35;;;6.63;;
42754;SDS011;28407;51.830;5.684;2022-11-20T08:48:27;8.60;;;6.70;;
42754;SDS011;28407;51.830;5.684;2022-11-20T08:50:28;8.73;;;7.47;;
42754;SDS011;28407;51.830;5.684;2022-11-20T08:52:31;8.05;;;6.03;;
42754;SDS011;28407;51.830;5.684;2022-11-20T08:54:32;7.97;;;7.18;;
42754;SDS011;28407;51.830;5.684;2022-11-20T08:56:32;9.18;;;6.88;;
42754;SDS011;28407;51.830;5.684;2022-11-20T08:58:33;9.20;;;7.63;;
42754;SDS011;28407;51.830;5.684;2022-11-20T09:00:34;9.32;;;7.22;;
42754;SDS011;28407;51.830;5.684;2022-11-20T09:02:35;8.77;;;7.20;;
42754;SDS011;28407;51.830;5.684;2022-11-20T09:04:35;8.77;;;7.25;;
42754;SDS011;28407;51.830;5.684;2022-11-20T09:06:36;9.80;;;8.27;;
42754;SDS011;28407;51.830;5.684;2022-11-20T09:08:37;9.20;;;6.97;;
42754;SDS011;28407;51.830;5.684;2022-11-20T09:10:37;9.93;;;7.78;;
42754;SDS011;28407;51.830;5.684;2022-11-20T09:12:41;9.65;;;7.70;;
42754;SDS011;28407;51.830;5.684;2022-11-20T09:14:41;9.27;;;7.78;;
42754;SDS011;28407;51.830;5.684;2022-11-20T09:16:44;6.47;;;5.85;;
42754;SDS011;28407;51.830;5.684;2022-11-20T09:18:45;7.95;;;6.50;;
42754;SDS011;28407;51.830;5.684;2022-11-20T09:20:46;8.50;;;6.70;;
42754;SDS011;28407;51.830;5.684;2022-11-20T09:22:46;10.52;;;7.80;;
42754;SDS011;28407;51.830;5.684;2022-11-20T09:24:47;8.43;;;6.85;;
42754;SDS011;28407;51.830;5.684;2022-11-20T09:26:47;9.60;;;8.00;;
42754;SDS011;28407;51.830;5.684;2022-11-20T09:28:48;7.68;;;6.95;;
42754;SDS011;28407;51.830;5.684;2022-11-20T09:30:49;8.80;;;7.50;;
42754;SDS011;28407;51.830;5.684;2022-11-20T09:32:49;8.43;;;7.45;;
42754;SDS011;28407;51.830;5.684;2022-11-20T09:34:50;8.23;;;6.20;;
42754;SDS011;28407;51.830;5.684;2022-11-20T09:36:50;8.77;;;7.82;;
42754;SDS011;28407;51.830;5.684;2022-11-20T09:38:51;8.98;;;8.07;;
42754;SDS011;28407;51.830;5.684;2022-11-20T09:41:01;9.38;;;7.28;;
42754;SDS011;28407;51.830;5.684;2022-11-20T09:43:10;9.45;;;7.68;;
42754;SDS011;28407;51.830;5.684;2022-11-20T09:47:52;8.00;;;7.05;;
42754;SDS011;28407;51.830;5.684;2022-11-20T09:52:47;10.98;;;8.75;;
42754;SDS011;28407;51.830;5.684;2022-11-20T09:55:11;9.88;;;8.05;;
42754;SDS011;28407;51.830;5.684;2022-11-20T09:57:14;8.40;;;7.10;;
42754;SDS011;28407;51.830;5.684;2022-11-20T10:01:40;12.18;;;8.15;;
42754;SDS011;28407;51.830;5.684;2022-11-20T10:03:49;10.80;;;8.85;;
42754;SDS011;28407;51.830;5.684;2022-11-20T10:06:01;9.65;;;7.70;;
42754;SDS011;28407;51.830;5.684;2022-11-20T10:10:33;9.20;;;7.90;;
42754;SDS011;28407;51.830;5.684;2022-11-20T10:17:47;9.25;;;7.28;;
42754;SDS011;28407;51.830;5.684;2022-11-20T10:27:29;11.45;;;8.18;;
42754;SDS011;28407;51.830;5.684;2022-11-20T10:30:34;10.07;;;7.45;;
42754;SDS011;28407;51.830;5.684;2022-11-20T10:32:19;10.50;;;9.40;;
42754;SDS011;28407;51.830;5.684;2022-11-20T10:34:47;13.68;;;8.70;;
42754;SDS011;28407;51.830;5.684;2022-11-20T10:39:04;10.75;;;9.07;;
42754;SDS011;28407;51.830;5.684;2022-11-20T10:41:21;9.57;;;8.25;;
42754;SDS011;28407;51.830;5.684;2022-11-20T10:43:28;12.27;;;9.50;;
42754;SDS011;28407;51.830;5.684;2022-11-20T10:45:43;14.30;;;9.95;;
42754;SDS011;28407;51.830;5.684;2022-11-20T10:48:10;11.50;;;8.82;;
42754;SDS011;28407;51.830;5.684;2022-11-20T10:50:25;10.25;;;8.55;;
42754;SDS011;28407;51.830;5.684;2022-11-20T10:52:33;11.18;;;9.07;;
42754;SDS011;28407;51.830;5.684;2022-11-20T10:59:24;11.02;;;8.88;;
42754;SDS011;28407;51.830;5.684;2022-11-20T11:01:39;10.45;;;8.60;;
42754;SDS011;28407;51.830;5.684;2022-11-20T11:03:42;10.32;;;8.73;;
42754;SDS011;28407;51.830;5.684;2022-11-20T11:05:45;10.63;;;8.90;;
42754;SDS011;28407;51.830;5.684;2022-11-20T11:07:55;11.02;;;8.30;;
42754;SDS011;28407;51.830;5.684;2022-11-20T11:09:57;14.02;;;9.88;;
42754;SDS011;28407;51.830;5.684;2022-11-20T11:11:58;13.27;;;10.23;;
42754;SDS011;28407;51.830;5.684;2022-11-20T11:14:05;14.15;;;9.75;;
42754;SDS011;28407;51.830;5.684;2022-11-20T11:16:16;11.57;;;8.73;;
42754;SDS011;28407;51.830;5.684;2022-11-20T11:18:24;12.48;;;9.38;;
42754;SDS011;28407;51.830;5.684;2022-11-20T11:20:27;12.40;;;9.25;;
42754;SDS011;28407;51.830;5.684;2022-11-20T11:22:28;12.35;;;9.63;;
42754;SDS011;28407;51.830;5.684;2022-11-20T11:24:32;13.30;;;9.35;;
42754;SDS011;28407;51.830;5.684;2022-11-20T11:26:32;13.15;;;10.35;;
42754;SDS011;28407;51.830;5.684;2022-11-20T11:28:33;12.50;;;9.82;;
42754;SDS011;28407;51.830;5.684;2022-11-20T11:30:41;14.57;;;10.27;;
42754;SDS011;28407;51.830;5.684;2022-11-20T11:32:44;12.65;;;10.00;;
42754;SDS011;28407;51.830;5.684;2022-11-20T11:34:45;14.20;;;10.27;;
42754;SDS011;28407;51.830;5.684;2022-11-20T11:36:58;11.13;;;9.32;;
42754;SDS011;28407;51.830;5.684;2022-11-20T11:41:01;11.05;;;8.88;;
42754;SDS011;28407;51.830;5.684;2022-11-20T11:43:07;12.30;;;10.68;;
42754;SDS011;28407;51.830;5.684;2022-11-20T11:45:38;11.18;;;9.52;;
42754;SDS011;28407;51.830;5.684;2022-11-20T11:49:41;10.15;;;8.38;;
42754;SDS011;28407;51.830;5.684;2022-11-20T11:54:26;15.43;;;11.18;;
42754;SDS011;28407;51.830;5.684;2022-11-20T11:56:32;16.33;;;11.35;;
42754;SDS011;28407;51.830;5.684;2022-11-20T11:58:46;13.67;;;9.33;;
42754;SDS011;28407;51.830;5.684;2022-11-20T12:00:51;13.68;;;10.00;;
42754;SDS011;28407;51.830;5.684;2022-11-20T12:03:24;12.40;;;9.68;;
42754;SDS011;28407;51.830;5.684;2022-11-20T12:05:31;12.93;;;10.40;;
42754;SDS011;28407;51.830;5.684;2022-11-20T12:07:45;15.15;;;10.82;;
42754;SDS011;28407;51.830;5.684;2022-11-20T12:09:52;13.90;;;10.57;;
42754;SDS011;28407;51.830;5.684;2022-11-20T12:12:15;15.73;;;10.80;;
42754;SDS011;28407;51.830;5.684;2022-11-20T12:14:34;14.68;;;10.90;;
42754;SDS011;28407;51.830;5.684;2022-11-20T12:16:37;15.23;;;11.20;;
42754;SDS011;28407;51.830;5.684;2022-11-20T12:18:39;13.52;;;11.07;;
42754;SDS011;28407;51.830;5.684;2022-11-20T12:20:42;16.40;;;10.13;;
42754;SDS011;28407;51.830;5.684;2022-11-20T12:23:07;14.23;;;10.82;;
42754;SDS011;28407;51.830;5.684;2022-11-20T12:25:18;16.15;;;11.57;;
42754;SDS011;28407;51.830;5.684;2022-11-20T12:30:15;15.90;;;11.25;;
42754;SDS011;28407;51.830;5.684;2022-11-20T12:32:31;19.08;;;12.57;;
42754;SDS011;28407;51.830;5.684;2022-11-20T12:37:20;16.77;;;12.20;;
42754;SDS011;28407;51.830;5.684;2022-11-20T12:39:33;16.75;;;12.02;;
42754;SDS011;28407;51.830;5.684;2022-11-20T12:49:44;15.07;;;10.27;;
42754;SDS011;28407;51.830;5.684;2022-11-20T12:52:14;22.83;;;14.90;;
42754;SDS011;28407;51.830;5.684;2022-11-20T12:54:38;16.27;;;11.57;;
42754;SDS011;28407;51.830;5.684;2022-11-20T12:57:13;17.77;;;12.60;;
42754;SDS011;28407;51.830;5.684;2022-11-20T12:59:39;17.27;;;11.15;;
42754;SDS011;28407;51.830;5.684;2022-11-20T13:02:23;16.20;;;11.82;;
42754;SDS011;28407;51.830;5.684;2022-11-20T13:06:50;16.38;;;10.65;;
42754;SDS011;28407;51.830;5.684;2022-11-20T13:08:54;18.15;;;12.95;;
42754;SDS011;28407;51.830;5.684;2022-11-20T13:11:03;17.83;;;11.63;;
42754;SDS011;28407;51.830;5.684;2022-11-20T13:13:43;18.63;;;11.80;;
42754;SDS011;28407;51.830;5.684;2022-11-20T13:16:11;18.42;;;12.10;;
42754;SDS011;28407;51.830;5.684;2022-11-20T13:18:19;20.75;;;13.90;;
42754;SDS011;28407;51.830;5.684;2022-11-20T13:20:20;18.10;;;12.80;;
42754;SDS011;28407;51.830;5.684;2022-11-20T13:22:27;17.48;;;11.38;;
42754;SDS011;28407;51.830;5.684;2022-11-20T13:24:49;16.70;;;11.57;;